Time;durP1;ratioP1;P1;durP2;ratioP2;P2;SDS_P1;SDS_P2;PMS_P1;PMS_P2;Temp;Humidity;BMP_temperature;BMP_pressure;BME280_temperature;BME280_humidity;BME280_pressure;Samples;Min_cycle;Max_cycle;Signal;HPM_P1;HPM_P2
2024/01/16 00:02:44;;;;;;;;;;;;;;;15.72;40.87;98799.47;10334048;28;794;-74
2024/01/16 00:07:41;;;;;;;;;;;;;;;15.72;40.63;98796.00;10333387;28;1933;-74
2024/01/16 00:12:37;;;;;;;;;;;;;;;15.69;40.84;98796.13;10333625;28;839;-74
2024/01/16 00:17:33;;;;;;;;;;;;;;;15.69;40.89;98801.38;10332779;28;966;-74
2024/01/16 00:22:28;;;;;;;;;;;;;;;15.70;40.69;98803.09;10332086;28;989;-74
2024/01/16 00:27:24;;;;;;;;;;;;;;;15.69;40.78;98809.25;10332793;28;1905;-74
2024/01/16 00:32:20;;;;;;;;;;;;;;;15.67;40.53;98821.59;10332866;28;865;-74
2024/01/16 00:37:16;;;;;;;;;;;;;;;15.67;40.76;98827.69;10332031;28;1170;-74
2024/01/16 00:42:12;;;;;;;;;;;;;;;15.66;40.57;98814.63;10331805;28;875;-75
2024/01/16 00:47:08;;;;;;;;;;;;;;;15.66;40.63;98817.25;10332167;28;1925;-74
2024/01/16 00:52:04;;;;;;;;;;;;;;;15.65;40.65;98826.91;10331989;28;853;-74
2024/01/16 00:57:00;;;;;;;;;;;;;;;15.66;40.79;98836.50;10330677;28;1177;-74
2024/01/16 01:01:56;;;;;;;;;;;;;;;15.65;40.45;98833.97;10331186;28;808;-74
2024/01/16 01:06:52;;;;;;;;;;;;;;;15.64;40.72;98843.63;10330515;28;1886;-74
2024/01/16 01:11:48;;;;;;;;;;;;;;;15.65;40.66;98837.44;10330937;28;762;-74
2024/01/16 01:16:44;;;;;;;;;;;;;;;15.63;40.67;98855.03;10331583;28;823;-74
2024/01/16 01:21:40;;;;;;;;;;;;;;;15.63;40.71;98852.41;10331105;28;860;-74
2024/01/16 01:26:35;;;;;;;;;;;;;;;15.65;40.60;98860.22;10330055;28;1304;-74
2024/01/16 01:31:31;;;;;;;;;;;;;;;15.65;40.49;98865.47;10330037;28;1895;-74
2024/01/16 01:36:27;;;;;;;;;;;;;;;15.62;40.59;98860.38;10330460;28;858;-74
2024/01/16 01:41:23;;;;;;;;;;;;;;;15.62;40.58;98857.75;10330241;28;819;-74
2024/01/16 01:46:19;;;;;;;;;;;;;;;15.63;40.50;98862.91;10329520;28;952;-74
2024/01/16 01:51:15;;;;;;;;;;;;;;;15.61;40.54;98858.66;10329818;28;1898;-74
2024/01/16 01:56:11;;;;;;;;;;;;;;;15.60;40.61;98862.22;10329112;28;799;-74
2024/01/16 02:01:07;;;;;;;;;;;;;;;15.59;40.55;98871.88;10329561;28;793;-74
2024/01/16 02:06:03;;;;;;;;;;;;;;;15.60;40.59;98877.97;10328702;28;774;-75
2024/01/16 02:10:59;;;;;;;;;;;;;;;15.58;40.32;98878.03;10329003;28;1893;-74
2024/01/16 02:15:55;;;;;;;;;;;;;;;15.59;40.57;98876.25;10328287;28;778;-74
2024/01/16 02:20:51;;;;;;;;;;;;;;;15.57;40.67;98877.19;10327868;28;870;-74
2024/01/16 02:25:47;;;;;;;;;;;;;;;15.56;40.55;98870.25;10328048;28;1219;-74
2024/01/16 02:30:43;;;;;;;;;;;;;;;15.54;40.55;98869.47;10328315;28;1921;-74
2024/01/16 02:35:39;;;;;;;;;;;;;;;15.55;40.37;98879.03;10327467;28;964;-75
2024/01/16 02:40:35;;;;;;;;;;;;;;;15.54;40.37;98885.22;10327842;28;980;-75
2024/01/16 02:45:31;;;;;;;;;;;;;;;15.55;40.44;98886.91;10327640;28;873;-74
2024/01/16 02:50:27;;;;;;;;;;;;;;;15.55;40.56;98886.06;10326832;28;1897;-74
2024/01/16 02:55:23;;;;;;;;;;;;;;;15.56;40.57;98891.28;10327326;28;857;-74
2024/01/16 03:00:19;;;;;;;;;;;;;;;15.53;40.62;98894.00;10326679;28;786;-75
2024/01/16 03:05:15;;;;;;;;;;;;;;;15.55;40.13;98888.69;10326319;28;869;-74
2024/01/16 03:10:11;;;;;;;;;;;;;;;15.54;40.45;98890.47;10326134;28;1898;-74
2024/01/16 03:15:07;;;;;;;;;;;;;;;15.53;40.56;98899.25;10327180;28;794;-74
2024/01/16 03:20:03;;;;;;;;;;;;;;;15.54;40.55;98889.63;10326603;28;957;-74
2024/01/16 03:24:59;;;;;;;;;;;;;;;15.57;40.61;98884.22;10326146;28;1381;-74
2024/01/16 03:29:56;;;;;;;;;;;;;;;15.54;40.62;98894.88;10325772;28;1918;-74
2024/01/16 03:34:51;;;;;;;;;;;;;;;15.53;40.51;98888.75;10325717;28;755;-74
2024/01/16 03:39:47;;;;;;;;;;;;;;;15.54;40.44;98890.47;10326188;28;1012;-74
2024/01/16 03:44:43;;;;;;;;;;;;;;;15.51;40.51;98889.75;10325977;28;790;-74
2024/01/16 03:49:39;;;;;;;;;;;;;;;15.50;40.58;98888.91;10325822;28;1945;-74
2024/01/16 03:54:35;;;;;;;;;;;;;;;15.53;40.39;98893.16;10325776;28;878;-74
2024/01/16 03:59:31;;;;;;;;;;;;;;;15.52;40.30;98897.56;10324546;28;865;-74
2024/01/16 04:04:27;;;;;;;;;;;;;;;15.50;40.29;98899.41;10324936;28;770;-74
2024/01/16 04:09:23;;;;;;;;;;;;;;;15.51;40.49;98895.88;10324149;28;1964;-74
2024/01/16 04:14:19;;;;;;;;;;;;;;;15.51;40.44;98895.88;10325507;28;854;-74
2024/01/16 04:19:15;;;;;;;;;;;;;;;15.49;40.56;98889.84;10324199;28;1153;-74
2024/01/16 04:24:11;;;;;;;;;;;;;;;15.51;40.47;98884.50;10324648;28;802;-74
2024/01/16 04:29:08;;;;;;;;;;;;;;;15.52;40.30;98884.44;10324628;28;1910;-74
2024/01/16 04:34:04;;;;;;;;;;;;;;;15.53;40.36;98883.50;10324180;28;962;-74
2024/01/16 04:38:59;;;;;;;;;;;;;;;15.54;40.36;98887.84;10324347;28;910;-74
2024/01/16 04:43:55;;;;;;;;;;;;;;;15.54;40.54;98882.59;10329592;28;814;-73
2024/01/16 04:48:51;;;;;;;;;;;;;;;15.60;40.42;98884.09;10332150;28;1894;-71
2024/01/16 04:53:47;;;;;;;;;;;;;;;15.64;40.53;98880.41;10331501;28;767;-71
2024/01/16 04:58:43;;;;;;;;;;;;;;;15.67;40.80;98874.16;10331846;28;819;-74
2024/01/16 05:03:39;;;;;;;;;;;;;;;15.65;40.50;98874.19;10331079;28;875;-70
2024/01/16 05:08:35;;;;;;;;;;;;;;;15.68;40.58;98878.47;10330896;28;1910;-71
2024/01/16 05:13:31;;;;;;;;;;;;;;;15.72;40.55;98877.44;10330750;28;890;-73
2024/01/16 05:18:27;;;;;;;;;;;;;;;15.65;40.60;98875.97;10312725;28;770;-73
2024/01/16 05:23:23;;;;;;;;;;;;;;;15.66;40.48;98868.00;10328411;28;966;-73
2024/01/16 05:28:19;;;;;;;;;;;;;;;15.68;40.16;98870.56;10330611;28;1983;-73
2024/01/16 05:33:14;;;;;;;;;;;;;;;15.68;40.20;98866.16;10330071;28;901;-73
2024/01/16 05:38:12;;;;;;;;;;;;;;;15.72;40.28;98869.56;10330494;28;922;-71
2024/01/16 05:43:08;;;;;;;;;;;;;;;15.75;39.94;98861.50;10329693;28;865;-71
2024/01/16 05:48:03;;;;;;;;;;;;;;;15.80;40.00;98858.63;10329410;28;1899;-71
2024/01/16 05:52:59;;;;;;;;;;;;;;;15.84;39.98;98854.94;10328750;28;826;-75
2024/01/16 05:57:55;;;;;;;;;;;;;;;15.85;40.20;98857.50;10329092;28;887;-71
2024/01/16 06:02:51;;;;;;;;;;;;;;;15.83;40.11;98856.72;10328913;28;818;-71
2024/01/16 06:07:47;;;;;;;;;;;;;;;15.86;40.03;98859.19;10328758;28;1886;-70
2024/01/16 06:12:43;;;;;;;;;;;;;;;15.85;40.19;98860.13;10329110;28;843;-71
2024/01/16 06:17:39;;;;;;;;;;;;;;;15.87;39.96;98854.78;10328910;28;857;-71
2024/01/16 06:22:35;;;;;;;;;;;;;;;15.88;39.92;98859.97;10328106;28;799;-75
2024/01/16 06:27:30;;;;;;;;;;;;;;;15.87;40.19;98860.88;10327843;28;1906;-70
2024/01/16 06:32:26;;;;;;;;;;;;;;;15.90;39.84;98854.63;10327634;28;767;-70
2024/01/16 06:37:22;;;;;;;;;;;;;;;15.89;39.90;98864.28;10328356;28;810;-70
2024/01/16 06:42:19;;;;;;;;;;;;;;;15.89;40.01;98859.03;10328514;28;900;-70
2024/01/16 06:47:15;;;;;;;;;;;;;;;15.89;39.92;98850.31;10328009;28;1898;-70
2024/01/16 06:52:11;;;;;;;;;;;;;;;15.89;39.79;98864.28;10326860;28;1108;-70
2024/01/16 06:57:07;;;;;;;;;;;;;;;15.89;39.68;98851.16;10327329;28;763;-70
2024/01/16 07:02:03;;;;;;;;;;;;;;;15.90;39.83;98866.03;10326004;28;850;-70
2024/01/16 07:06:59;;;;;;;;;;;;;;;15.89;39.48;98876.59;10325492;28;978;-70
2024/01/16 07:11:55;;;;;;;;;;;;;;;15.86;39.68;98872.34;10326095;28;1910;-70
2024/01/16 07:16:51;;;;;;;;;;;;;;;15.85;39.41;98878.53;10326869;28;861;-70
2024/01/16 07:21:47;;;;;;;;;;;;;;;15.80;39.45;98891.03;10327111;28;902;-70
2024/01/16 07:26:43;;;;;;;;;;;;;;;15.76;39.53;98898.19;10325629;28;1343;-70
2024/01/16 07:31:38;;;;;;;;;;;;;;;15.77;39.55;98905.19;10326312;28;1917;-70
2024/01/16 07:36:34;;;;;;;;;;;;;;;15.75;39.66;98908.81;10325744;28;819;-70
2024/01/16 07:41:30;;;;;;;;;;;;;;;15.76;39.80;98918.38;10324937;28;944;-69
2024/01/16 07:46:26;;;;;;;;;;;;;;;15.73;40.08;98915.91;10321108;28;936;-68
2024/01/16 07:51:22;;;;;;;;;;;;;;;15.75;39.82;98919.31;10324612;28;1902;-69
2024/01/16 07:56:18;;;;;;;;;;;;;;;15.74;39.95;98922.84;10324427;28;869;-69
2024/01/16 08:01:14;;;;;;;;;;;;;;;15.75;39.76;98919.31;10325104;28;929;-68
2024/01/16 08:06:10;;;;;;;;;;;;;;;15.74;39.96;98915.81;10324365;28;775;-69
2024/01/16 08:11:05;;;;;;;;;;;;;;;15.77;39.75;98922.69;10325507;28;1898;-69
2024/01/16 08:16:01;;;;;;;;;;;;;;;15.76;39.52;98921.00;10325757;28;860;-69
2024/01/16 08:20:57;;;;;;;;;;;;;;;15.77;39.74;98922.69;10333414;28;948;-69
2024/01/16 08:25:53;;;;;;;;;;;;;;;15.78;39.88;98927.03;10332282;28;1160;-68
2024/01/16 08:30:49;;;;;;;;;;;;;;;15.82;39.52;98930.38;10332955;28;1910;-69
2024/01/16 08:35:45;;;;;;;;;;;;;;;15.82;39.53;98923.31;10331631;28;928;-69
2024/01/16 08:40:41;;;;;;;;;;;;;;;15.83;39.37;98925.06;10332321;28;964;-69
2024/01/16 08:45:36;;;;;;;;;;;;;;;15.82;39.65;98930.38;10332636;28;917;-69
2024/01/16 08:50:33;;;;;;;;;;;;;;;15.84;39.52;98926.75;10330880;28;1951;-68
2024/01/16 08:55:29;;;;;;;;;;;;;;;15.85;39.49;98936.34;10331645;28;844;-70
2024/01/16 09:00:25;;;;;;;;;;;;;;;15.92;39.47;98932.47;10331903;28;976;-71
2024/01/16 09:05:25;;;;;;;;;;;;;;;15.90;39.90;98936.97;10331083;28;785;-71
2024/01/16 09:10:21;;;;;;;;;;;;;;;15.94;39.70;98935.03;10327568;28;1897;-71
2024/01/16 09:15:16;;;;;;;;;;;;;;;15.97;39.66;98934.88;10326837;28;947;-69
2024/01/16 09:20:12;;;;;;;;;;;;;;;16.00;39.32;98929.47;10328840;28;838;-70
2024/01/16 09:25:08;;;;;;;;;;;;;;;15.98;39.58;98932.19;10329767;28;1247;-70
2024/01/16 09:30:04;;;;;;;;;;;;;;;16.04;39.45;98952.06;10328691;28;1917;-73
2024/01/16 09:35:02;;;;;;;;;;;;;;;16.00;39.61;98948.72;10329784;28;938;-70
2024/01/16 09:39:58;;;;;;;;;;;;;;;16.03;39.26;98946.88;10329268;28;794;-75
2024/01/16 09:44:54;;;;;;;;;;;;;;;16.07;39.52;98951.06;10329289;28;970;-70
2024/01/16 09:49:50;;;;;;;;;;;;;;;16.06;39.26;98952.84;10328789;28;1902;-70
2024/01/16 09:54:47;;;;;;;;;;;;;;;16.09;39.32;98938.72;10328992;28;773;-70
2024/01/16 09:59:43;;;;;;;;;;;;;;;16.11;39.12;98939.47;10328367;28;883;-71
2024/01/16 10:04:39;;;;;;;;;;;;;;;16.10;38.99;98938.63;10328828;28;832;-70
2024/01/16 10:09:35;;;;;;;;;;;;;;;16.14;38.80;98936.72;10327929;28;1898;-70
2024/01/16 10:14:31;;;;;;;;;;;;;;;16.15;38.78;98928.72;10329003;28;1044;-71
2024/01/16 10:19:27;;;;;;;;;;;;;;;16.16;38.42;98929.56;10328035;28;1024;-70
2024/01/16 10:24:23;;;;;;;;;;;;;;;16.14;38.76;98926.19;10327911;28;951;-71
2024/01/16 10:29:18;;;;;;;;;;;;;;;16.09;38.90;98922.94;10327576;28;1909;-71
2024/01/16 10:34:14;;;;;;;;;;;;;;;16.12;38.90;98918.38;10327349;28;759;-70
2024/01/16 10:39:11;;;;;;;;;;;;;;;16.14;38.90;98915.66;10326176;28;982;-70
2024/01/16 10:44:07;;;;;;;;;;;;;;;16.14;38.78;98921.78;10326926;28;861;-70
2024/01/16 10:49:03;;;;;;;;;;;;;;;16.13;38.64;98924.47;10326311;28;1951;-70
2024/01/16 10:53:59;;;;;;;;;;;;;;;16.12;38.78;98896.50;10327251;28;965;-70
2024/01/16 10:58:55;;;;;;;;;;;;;;;16.18;38.43;98896.16;10326054;28;798;-70
2024/01/16 11:03:52;;;;;;;;;;;;;;;16.23;38.13;98898.56;10326250;28;905;-70
2024/01/16 11:08:48;;;;;;;;;;;;;;;16.18;38.30;98901.44;10325992;28;1980;-70
2024/01/16 11:13:44;;;;;;;;;;;;;;;16.23;38.22;98888.91;10325943;28;883;-71
2024/01/16 11:18:40;;;;;;;;;;;;;;;16.29;38.41;98899.09;10325234;28;1037;-71
2024/01/16 11:23:36;;;;;;;;;;;;;;;16.22;38.27;98895.09;10326382;28;861;-70
2024/01/16 11:28:32;;;;;;;;;;;;;;;16.32;37.84;98892.84;10325880;28;1987;-70
2024/01/16 11:33:28;;;;;;;;;;;;;;;16.28;38.13;98900.03;10325535;28;759;-70
2024/01/16 11:38:26;;;;;;;;;;;;;;;16.24;38.44;98897.63;10325608;28;870;-70
2024/01/16 11:43:22;;;;;;;;;;;;;;;16.31;38.42;98885.88;10325275;28;846;-71
2024/01/16 11:48:18;;;;;;;;;;;;;;;16.33;38.05;98886.66;10324817;28;1965;-71
2024/01/16 11:53:14;;;;;;;;;;;;;;;16.27;38.70;98879.94;10325508;28;945;-71
2024/01/16 11:58:10;;;;;;;;;;;;;;;16.29;38.49;98891.22;10325786;28;835;-74
2024/01/16 12:03:06;;;;;;;;;;;;;;;16.27;38.66;98881.69;10323199;28;1184;-69
2024/01/16 12:08:03;;;;;;;;;;;;;;;16.32;38.61;98877.06;10325141;28;1955;-71
2024/01/16 12:12:59;;;;;;;;;;;;;;;16.31;38.36;98873.59;10324670;28;887;-69
2024/01/16 12:17:55;;;;;;;;;;;;;;;16.36;38.22;98855.78;10324093;28;953;-70
2024/01/16 12:22:51;;;;;;;;;;;;;;;16.35;38.30;98848.84;10324433;28;882;-72
2024/01/16 12:27:47;;;;;;;;;;;;;;;16.34;38.20;98847.13;10323680;28;1977;-71
2024/01/16 12:32:43;;;;;;;;;;;;;;;16.33;38.76;98847.22;10324719;28;790;-70
2024/01/16 12:37:39;;;;;;;;;;;;;;;16.39;38.32;98845.09;10323613;28;869;-70
2024/01/16 12:42:35;;;;;;;;;;;;;;;16.41;38.29;98835.38;10324031;28;782;-71
2024/01/16 12:47:30;;;;;;;;;;;;;;;16.39;38.65;98818.81;10323596;28;1901;-70
2024/01/16 12:52:27;;;;;;;;;;;;;;;16.44;38.41;98819.41;10323900;28;974;-74
2024/01/16 12:57:23;;;;;;;;;;;;;;;16.40;38.44;98812.63;10324069;28;914;-80
2024/01/16 13:02:19;;;;;;;;;;;;;;;16.42;38.35;98813.38;10324231;28;806;-72
2024/01/16 13:07:14;;;;;;;;;;;;;;;16.31;38.41;98809.63;10330640;28;881;-84
2024/01/16 13:12:11;;;;;;;;;;;;;;;16.32;37.97;98812.19;10330774;28;937;-76
2024/01/16 13:17:08;;;;;;;;;;;;;;;16.28;37.48;98813.25;10331051;28;798;-81
2024/01/16 13:22:04;;;;;;;;;;;;;;;16.26;37.50;98809.00;10330452;28;974;-84
2024/01/16 13:27:00;;;;;;;;;;;;;;;16.24;37.41;98810.88;10330006;28;1083;-73
2024/01/16 13:31:56;;;;;;;;;;;;;;;16.36;36.92;98816.34;10330065;28;1906;-71
2024/01/16 13:36:52;;;;;;;;;;;;;;;16.31;37.31;98807.00;10329481;28;992;-75
2024/01/16 13:41:48;;;;;;;;;;;;;;;16.35;36.83;98809.41;10329836;28;927;-70
2024/01/16 13:46:44;;;;;;;;;;;;;;;16.40;37.12;98796.84;10331104;28;984;-82
2024/01/16 13:51:40;;;;;;;;;;;;;;;16.35;36.43;98792.78;10328967;28;1890;-82
2024/01/16 13:56:36;;;;;;;;;;;;;;;16.34;37.13;98797.16;10329168;28;887;-67
2024/01/16 14:01:33;;;;;;;;;;;;;;;16.37;36.93;98797.03;10329421;28;928;-74
2024/01/16 14:06:29;;;;;;;;;;;;;;;16.32;37.15;98785.03;10329394;28;843;-69
2024/01/16 14:11:25;;;;;;;;;;;;;;;16.39;36.71;98782.00;10328316;28;1948;-69
2024/01/16 14:16:21;;;;;;;;;;;;;;;16.31;37.59;98781.53;10325565;28;1149;-69
2024/01/16 14:21:17;;;;;;;;;;;;;;;16.30;37.43;98771.97;10327622;28;927;-69
2024/01/16 14:26:12;;;;;;;;;;;;;;;16.35;37.33;98771.75;10327671;28;1377;-68
2024/01/16 14:31:08;;;;;;;;;;;;;;;16.40;37.12;98767.06;10327315;28;1918;-69
2024/01/16 14:36:04;;;;;;;;;;;;;;;16.35;37.33;98769.94;10327605;28;856;-70
2024/01/16 14:41:00;;;;;;;;;;;;;;;16.33;37.30;98770.97;10327576;28;853;-69
2024/01/16 14:45:58;;;;;;;;;;;;;;;16.30;37.60;98774.59;10326673;28;771;-69
2024/01/16 14:50:55;;;;;;;;;;;;;;;16.26;37.65;98777.47;10327121;28;1901;-68
2024/01/16 14:55:53;;;;;;;;;;;;;;;16.21;37.93;98775.91;10327756;28;834;-69
2024/01/16 15:00:49;;;;;;;;;;;;;;;16.18;37.74;98770.81;10326409;28;782;-74
2024/01/16 15:05:45;;;;;;;;;;;;;;;16.13;37.83;98774.63;10326841;28;820;-69
2024/01/16 15:10:41;;;;;;;;;;;;;;;16.16;38.03;98774.44;10324083;28;1961;-69
2024/01/16 15:15:37;;;;;;;;;;;;;;;16.14;37.86;98768.44;10325834;28;907;-68
2024/01/16 15:20:34;;;;;;;;;;;;;;;16.17;37.90;98763.88;10325976;28;804;-69
2024/01/16 15:25:29;;;;;;;;;;;;;;;16.18;38.23;98759.47;10325631;28;1144;-69
2024/01/16 15:30:31;;;;;;;;;;;;;;;16.17;38.18;98749.88;10325393;28;1917;-69
2024/01/16 15:35:27;;;;;;;;;;;;;;;16.13;38.51;98761.47;10325458;28;802;-69
2024/01/16 15:40:23;;;;;;;;;;;;;;;16.14;38.67;98757.94;10325928;28;913;-69
2024/01/16 15:45:19;;;;;;;;;;;;;;;16.16;38.70;98761.31;10325714;28;763;-69
2024/01/16 15:50:14;;;;;;;;;;;;;;;16.25;38.78;98768.72;10325030;28;1959;-77
2024/01/16 15:55:10;;;;;;;;;;;;;;;16.22;39.01;98763.63;10324974;28;937;-69
2024/01/16 16:00:09;;;;;;;;;;;;;;;16.22;39.48;98771.53;10325554;28;794;-68
2024/01/16 16:05:05;;;;;;;;;;;;;;;16.26;39.43;98773.03;10325518;28;905;-69
2024/01/16 16:10:00;;;;;;;;;;;;;;;16.24;39.55;98774.06;10324493;28;1965;-69
2024/01/16 16:14:56;;;;;;;;;;;;;;;16.24;39.54;98779.31;10324733;28;872;-69
2024/01/16 16:19:52;;;;;;;;;;;;;;;16.22;39.77;98779.41;10324576;28;777;-69
2024/01/16 16:24:48;;;;;;;;;;;;;;;16.27;39.76;98784.41;10324427;28;970;-69
2024/01/16 16:29:44;;;;;;;;;;;;;;;16.27;39.89;98785.28;10324775;28;1987;-69
2024/01/16 16:34:40;;;;;;;;;;;;;;;16.27;40.12;98785.28;10324881;28;893;-69
2024/01/16 16:39:36;;;;;;;;;;;;;;;16.23;40.03;98778.47;10329282;28;968;-69
2024/01/16 16:44:32;;;;;;;;;;;;;;;16.26;39.92;98780.94;10331770;28;921;-69
2024/01/16 16:49:27;;;;;;;;;;;;;;;16.22;39.73;98787.31;10330862;28;1902;-69
2024/01/16 16:54:23;;;;;;;;;;;;;;;16.20;40.12;98784.75;10331397;28;767;-69
2024/01/16 16:59:19;;;;;;;;;;;;;;;16.23;40.15;98789.00;10332065;28;860;-69
2024/01/16 17:04:15;;;;;;;;;;;;;;;16.20;40.21;98781.25;10331129;28;905;-69
2024/01/16 17:09:11;;;;;;;;;;;;;;;16.21;40.27;98775.91;10331407;28;1972;-69
2024/01/16 17:14:07;;;;;;;;;;;;;;;16.22;40.30;98776.78;10330351;28;1148;-68
2024/01/16 17:19:03;;;;;;;;;;;;;;;16.26;40.30;98773.03;10330796;28;869;-68
2024/01/16 17:23:59;;;;;;;;;;;;;;;16.27;40.36;98779.16;10331552;28;877;-68
2024/01/16 17:28:55;;;;;;;;;;;;;;;16.28;40.53;98768.56;10329705;28;1985;-69
2024/01/16 17:33:51;;;;;;;;;;;;;;;16.33;40.44;98763.91;10331020;28;870;-70
2024/01/16 17:38:48;;;;;;;;;;;;;;;16.30;39.90;98750.09;10329525;28;868;-70
2024/01/16 17:43:45;;;;;;;;;;;;;;;16.28;40.12;98750.16;10329825;28;869;-70
2024/01/16 17:48:43;;;;;;;;;;;;;;;16.29;40.07;98751.00;10328860;28;1961;-69
2024/01/16 17:53:38;;;;;;;;;;;;;;;16.28;40.16;98744.91;10329867;28;798;-69
2024/01/16 17:58:34;;;;;;;;;;;;;;;16.31;39.91;98743.88;10328711;28;960;-70
2024/01/16 18:03:30;;;;;;;;;;;;;;;16.31;39.95;98743.88;10329858;28;850;-69
2024/01/16 18:08:26;;;;;;;;;;;;;;;16.33;39.95;98742.88;10329117;28;1953;-69
2024/01/16 18:13:22;;;;;;;;;;;;;;;16.36;39.89;98740.06;10328729;28;822;-69
2024/01/16 18:18:20;;;;;;;;;;;;;;;16.34;39.77;98723.53;10328554;28;747;-70
2024/01/16 18:23:16;;;;;;;;;;;;;;;16.38;39.64;98713.72;10328318;28;974;-69
2024/01/16 18:28:13;;;;;;;;;;;;;;;16.37;39.91;98714.63;10328259;28;1917;-70
2024/01/16 18:33:08;;;;;;;;;;;;;;;16.35;39.86;98713.88;10328432;28;960;-69
2024/01/16 18:38:07;;;;;;;;;;;;;;;16.42;39.79;98699.44;10328269;28;803;-69
2024/01/16 18:43:03;;;;;;;;;;;;;;;16.40;39.57;98691.66;10327383;28;911;-69
2024/01/16 18:47:59;;;;;;;;;;;;;;;16.40;39.66;98702.19;10327221;28;1961;-69
2024/01/16 18:52:55;;;;;;;;;;;;;;;16.41;39.75;98703.84;10326509;28;901;-69
2024/01/16 18:57:51;;;;;;;;;;;;;;;16.41;39.62;98703.84;10327458;28;938;-70
2024/01/16 19:02:47;;;;;;;;;;;;;;;16.42;39.60;98686.28;10326582;28;1004;-70
2024/01/16 19:07:43;;;;;;;;;;;;;;;16.46;39.64;98687.00;10327037;28;1952;-70
2024/01/16 19:12:39;;;;;;;;;;;;;;;16.43;39.64;98675.69;10327058;28;795;-70
2024/01/16 19:17:35;;;;;;;;;;;;;;;16.47;39.57;98667.63;10326169;28;964;-70
2024/01/16 19:22:31;;;;;;;;;;;;;;;16.46;39.65;98666.78;10326395;28;778;-70
2024/01/16 19:27:27;;;;;;;;;;;;;;;16.49;39.54;98664.00;10325590;28;1448;-69
2024/01/16 19:32:24;;;;;;;;;;;;;;;16.48;39.43;98666.69;10325708;28;2037;-70
2024/01/16 19:37:19;;;;;;;;;;;;;;;16.48;39.57;98661.44;10325789;28;964;-69
2024/01/16 19:42:15;;;;;;;;;;;;;;;16.50;39.60;98655.16;10325655;28;787;-70
2024/01/16 19:47:12;;;;;;;;;;;;;;;16.51;39.48;98650.78;10326123;28;880;-69
2024/01/16 19:52:08;;;;;;;;;;;;;;;16.50;39.62;98646.41;10325916;28;1963;-69
2024/01/16 19:57:05;;;;;;;;;;;;;;;16.52;39.37;98636.66;10325340;28;863;-69
2024/01/16 20:02:01;;;;;;;;;;;;;;;16.51;39.57;98629.72;10325961;28;811;-69
2024/01/16 20:06:57;;;;;;;;;;;;;;;16.53;39.26;98625.19;10325085;28;810;-70
2024/01/16 20:11:54;;;;;;;;;;;;;;;16.54;39.43;98617.25;10325131;28;1957;-70
2024/01/16 20:16:50;;;;;;;;;;;;;;;16.53;39.48;98614.69;10333239;28;890;-70
2024/01/16 20:21:46;;;;;;;;;;;;;;;16.54;39.47;98604.09;10332967;28;873;-70
2024/01/16 20:26:42;;;;;;;;;;;;;;;16.54;39.50;98598.81;10332875;28;1163;-69
2024/01/16 20:31:40;;;;;;;;;;;;;;;16.55;39.44;98589.16;10333094;28;1909;-70
2024/01/16 20:36:36;;;;;;;;;;;;;;;16.56;39.30;98585.59;10332377;28;934;-70
2024/01/16 20:41:32;;;;;;;;;;;;;;;16.54;39.49;98579.56;10332411;28;957;-69
2024/01/16 20:46:28;;;;;;;;;;;;;;;16.53;39.42;98577.84;10331999;28;834;-69
2024/01/16 20:51:26;;;;;;;;;;;;;;;16.52;39.37;98568.28;10331687;28;1949;-69
2024/01/16 20:56:22;;;;;;;;;;;;;;;16.51;39.55;98579.75;10332222;28;847;-70
2024/01/16 21:01:18;;;;;;;;;;;;;;;16.51;39.48;98575.34;10332111;28;863;-70
2024/01/16 21:06:14;;;;;;;;;;;;;;;16.51;39.27;98569.22;10332099;28;846;-70
2024/01/16 21:11:09;;;;;;;;;;;;;;;16.48;39.42;98565.00;10331634;28;1948;-69
2024/01/16 21:16:06;;;;;;;;;;;;;;;16.50;39.47;98559.63;10330733;28;1036;-70
2024/01/16 21:21:02;;;;;;;;;;;;;;;16.48;39.51;98565.00;10331314;28;767;-70
2024/01/16 21:25:58;;;;;;;;;;;;;;;16.50;39.50;98567.50;10329068;28;1232;-70
2024/01/16 21:30:54;;;;;;;;;;;;;;;16.49;39.39;98563.19;10330376;28;1979;-70
2024/01/16 21:35:51;;;;;;;;;;;;;;;16.49;39.27;98566.66;10330245;28;860;-69
2024/01/16 21:40:48;;;;;;;;;;;;;;;16.47;39.37;98559.81;10330029;28;841;-69
2024/01/16 21:45:43;;;;;;;;;;;;;;;16.46;39.28;98553.69;10330432;28;845;-69
2024/01/16 21:50:39;;;;;;;;;;;;;;;16.44;39.42;98543.25;10329603;28;1893;-69
2024/01/16 21:55:35;;;;;;;;;;;;;;;16.42;39.28;98539.84;10329393;28;874;-69
2024/01/16 22:00:31;;;;;;;;;;;;;;;16.39;39.28;98521.63;10328695;28;1240;-69
2024/01/16 22:05:27;;;;;;;;;;;;;;;16.39;39.28;98499.75;10328980;28;850;-69
2024/01/16 22:10:23;;;;;;;;;;;;;;;16.37;39.40;98502.47;10329378;28;1897;-70
2024/01/16 22:15:19;;;;;;;;;;;;;;;16.35;39.49;98488.56;10328070;28;834;-70
2024/01/16 22:20:16;;;;;;;;;;;;;;;16.31;39.44;98478.31;10328996;28;887;-69
2024/01/16 22:25:12;;;;;;;;;;;;;;;16.32;39.32;98472.09;10328647;28;987;-69
2024/01/16 22:30:09;;;;;;;;;;;;;;;16.30;39.45;98459.06;10327962;28;1975;-69
2024/01/16 22:35:05;;;;;;;;;;;;;;;16.29;39.42;98449.47;10327718;28;865;-69
2024/01/16 22:40:01;;;;;;;;;;;;;;;16.26;39.43;98433.88;10327079;28;1205;-69
2024/01/16 22:44:57;;;;;;;;;;;;;;;16.28;39.52;98439.06;10327457;28;774;-69
2024/01/16 22:49:53;;;;;;;;;;;;;;;16.24;39.44;98421.75;10327127;28;1965;-69
2024/01/16 22:54:49;;;;;;;;;;;;;;;16.22;39.42;98413.97;10327070;28;783;-69
2024/01/16 22:59:44;;;;;;;;;;;;;;;16.24;39.65;98406.81;10326890;28;857;-69
2024/01/16 23:04:41;;;;;;;;;;;;;;;16.23;39.50;98397.25;10326576;28;862;-70
2024/01/16 23:09:37;;;;;;;;;;;;;;;16.22;39.59;98392.94;10326391;28;1886;-69
2024/01/16 23:14:33;;;;;;;;;;;;;;;16.21;39.29;98386.81;10326240;28;952;-69
2024/01/16 23:19:29;;;;;;;;;;;;;;;16.21;39.47;98391.22;10326044;28;1012;-70
2024/01/16 23:24:25;;;;;;;;;;;;;;;16.20;39.51;98374.59;10325881;28;856;-69
2024/01/16 23:29:22;;;;;;;;;;;;;;;16.20;39.38;98385.13;10326488;28;1979;-69
2024/01/16 23:34:18;;;;;;;;;;;;;;;16.17;39.48;98379.22;10326159;28;794;-69
2024/01/16 23:39:15;;;;;;;;;;;;;;;16.19;39.53;98375.56;10325115;28;905;-69
2024/01/16 23:44:11;;;;;;;;;;;;;;;16.17;39.46;98359.03;10325590;28;970;-69
2024/01/16 23:49:06;;;;;;;;;;;;;;;16.18;39.29;98354.59;10324718;28;1897;-69
2024/01/16 23:54:02;;;;;;;;;;;;;;;16.16;39.47;98344.16;10326003;28;747;-69
2024/01/16 23:58:58;;;;;;;;;;;;;;;16.15;39.45;98329.34;10325222;28;908;-69
